Time;durP1;ratioP1;P1;durP2;ratioP2;P2;SDS_P1;SDS_P2;PMS_P1;PMS_P2;Temp;Humidity;BMP_temperature;BMP_pressure;BME280_temperature;BME280_humidity;BME280_pressure;Samples;Min_cycle;Max_cycle;Signal;HPM_P1;HPM_P2
2022/03/07 00:00:37;;;;;;;18.03;7.37;;;3.20;63.90;;;;;;5095119;28;20497;-89
2022/03/07 00:03:03;;;;;;;12.73;5.97;;;3.30;63.90;;;;;;5095794;28;20960;-88
2022/03/07 00:05:29;;;;;;;8.43;6.95;;;3.30;64.00;;;;;;5096453;28;20539;-88
2022/03/07 00:07:54;;;;;;;8.93;6.27;;;3.20;64.10;;;;;;5095793;28;20654;-88
2022/03/07 00:10:24;;;;;;;10.50;6.63;;;3.20;64.30;;;;;;5095992;28;20420;-89
2022/03/07 00:12:50;;;;;;;9.73;6.85;;;3.10;64.50;;;;;;5096257;28;20179;-84
2022/03/07 00:15:17;;;;;;;11.07;6.80;;;3.20;64.80;;;;;;5097469;28;20200;-84
2022/03/07 00:17:43;;;;;;;11.07;7.10;;;3.10;64.90;;;;;;5097412;28;20444;-85
2022/03/07 00:20:09;;;;;;;9.13;6.50;;;3.10;65.00;;;;;;5096130;28;20864;-83
2022/03/07 00:22:35;;;;;;;13.52;6.85;;;3.10;65.10;;;;;;5098797;28;20425;-84
2022/03/07 00:25:00;;;;;;;10.07;7.10;;;3.10;65.00;;;;;;5100266;28;20663;-84
2022/03/07 00:27:26;;;;;;;9.90;6.70;;;3.00;65.00;;;;;;5102966;28;20183;-83
2022/03/07 00:29:52;;;;;;;13.30;7.40;;;3.00;65.20;;;;;;5102982;28;20175;-85
2022/03/07 00:32:18;;;;;;;13.60;7.47;;;3.10;65.40;;;;;;5102311;28;20663;-84
2022/03/07 00:34:43;;;;;;;8.47;7.00;;;3.00;65.50;;;;;;5099122;28;20445;-84
2022/03/07 00:37:09;;;;;;;10.23;6.90;;;3.00;65.50;;;;;;5099379;28;20183;-84
2022/03/07 00:39:35;;;;;;;9.23;7.43;;;3.10;65.40;;;;;;5097606;28;20481;-83
2022/03/07 00:42:01;;;;;;;10.57;7.20;;;3.10;65.30;;;;;;5099888;28;20414;-84
2022/03/07 00:44:27;;;;;;;9.63;6.75;;;3.00;65.30;;;;;;5098149;28;20192;-86
2022/03/07 00:46:53;;;;;;;10.80;7.00;;;3.00;65.50;;;;;;5098178;28;20463;-84
2022/03/07 00:49:19;;;;;;;9.95;6.82;;;3.00;65.60;;;;;;5096792;28;20207;-83
2022/03/07 00:51:44;;;;;;;13.60;7.90;;;3.00;65.60;;;;;;5097393;28;20199;-84
2022/03/07 00:54:10;;;;;;;10.23;6.80;;;2.90;65.60;;;;;;5098338;28;20195;-83
2022/03/07 00:56:36;;;;;;;11.85;7.53;;;2.90;65.80;;;;;;5098339;28;20172;-86
2022/03/07 00:59:02;;;;;;;17.07;7.37;;;2.80;66.00;;;;;;5096471;28;20187;-83
2022/03/07 01:01:28;;;;;;;10.85;7.25;;;2.80;66.10;;;;;;5098691;28;20279;-84
2022/03/07 01:03:53;;;;;;;9.33;6.67;;;2.70;66.50;;;;;;5098868;28;20587;-85
2022/03/07 01:06:19;;;;;;;14.47;7.40;;;2.70;66.50;;;;;;5099796;28;20206;-85
2022/03/07 01:08:45;;;;;;;10.17;6.97;;;2.70;66.40;;;;;;5098140;28;20202;-85
2022/03/07 01:11:11;;;;;;;14.50;7.50;;;2.70;66.50;;;;;;5100052;28;20244;-86
2022/03/07 01:13:37;;;;;;;11.23;7.68;;;2.60;66.60;;;;;;5095140;28;20215;-87
2022/03/07 01:16:03;;;;;;;14.52;8.40;;;2.70;66.60;;;;;;5098800;28;20196;-85
2022/03/07 01:18:29;;;;;;;14.88;8.00;;;2.70;66.60;;;;;;5097577;28;20183;-85
2022/03/07 01:20:55;;;;;;;13.47;6.97;;;2.60;66.50;;;;;;5098456;28;20226;-86
2022/03/07 01:23:21;;;;;;;14.10;6.80;;;2.60;66.60;;;;;;5099049;28;20418;-85
2022/03/07 01:25:47;;;;;;;11.63;7.13;;;2.60;66.70;;;;;;5099325;28;20183;-85
2022/03/07 01:28:13;;;;;;;15.80;7.10;;;2.60;66.70;;;;;;5105388;28;20413;-87
2022/03/07 01:30:38;;;;;;;12.57;7.60;;;2.60;66.70;;;;;;5111053;28;20418;-83
2022/03/07 01:33:04;;;;;;;9.97;6.50;;;2.50;67.10;;;;;;5102426;28;20441;-83
2022/03/07 01:35:30;;;;;;;10.93;7.37;;;2.50;67.20;;;;;;5099724;28;20330;-86
2022/03/07 01:37:56;;;;;;;16.50;7.87;;;2.50;67.40;;;;;;5100238;28;20172;-85
2022/03/07 01:40:21;;;;;;;9.70;7.63;;;2.40;67.30;;;;;;5100695;28;20453;-87
2022/03/07 01:42:47;;;;;;;11.20;7.80;;;2.50;67.40;;;;;;5116045;28;20187;-88
2022/03/07 01:45:20;;;;;;;10.47;7.60;;;2.30;67.60;;;;;;5110425;28;20196;-83
2022/03/07 01:47:47;;;;;;;12.38;7.18;;;2.30;67.70;;;;;;5100765;28;20487;-88
2022/03/07 01:50:16;;;;;;;11.02;7.80;;;2.30;67.70;;;;;;5101286;28;20659;-87
2022/03/07 01:52:45;;;;;;;12.50;7.53;;;2.30;67.90;;;;;;5086192;28;20184;-87
2022/03/07 01:55:13;;;;;;;13.70;8.82;;;2.20;68.00;;;;;;5104928;28;20204;-88
2022/03/07 01:57:42;;;;;;;9.73;8.40;;;2.10;68.40;;;;;;5111357;28;20210;-87
2022/03/07 02:00:18;;;;;;;11.90;7.70;;;2.10;68.50;;;;;;5095665;28;20227;-87
2022/03/07 02:02:45;;;;;;;15.82;8.60;;;2.20;68.70;;;;;;5093656;28;20415;-86
2022/03/07 02:05:11;;;;;;;11.75;7.90;;;2.10;68.60;;;;;;5112289;28;20212;-88
2022/03/07 02:07:37;;;;;;;11.43;7.50;;;2.10;68.50;;;;;;5103150;28;20388;-88
2022/03/07 02:10:05;;;;;;;13.70;7.90;;;2.20;68.30;;;;;;5097756;28;20190;-88
2022/03/07 02:12:30;;;;;;;11.40;8.10;;;2.10;68.40;;;;;;5098380;28;20172;-87
2022/03/07 02:14:56;;;;;;;12.97;9.00;;;2.10;68.50;;;;;;5099427;28;20207;-86
2022/03/07 02:17:22;;;;;;;16.57;8.97;;;2.10;68.40;;;;;;5104635;28;20198;-84
2022/03/07 02:19:48;;;;;;;15.93;8.82;;;2.10;68.20;;;;;;5113110;28;20212;-84
2022/03/07 02:22:16;;;;;;;17.50;7.57;;;2.00;68.10;;;;;;5107648;28;20180;-83
2022/03/07 02:24:43;;;;;;;12.45;8.15;;;2.10;68.20;;;;;;5099300;28;20675;-83
2022/03/07 02:27:11;;;;;;;16.23;8.82;;;2.00;68.10;;;;;;5098778;28;20250;-83
2022/03/07 02:29:37;;;;;;;13.68;9.23;;;1.80;68.50;;;;;;5081002;28;20666;-84
2022/03/07 02:32:17;;;;;;;13.15;7.05;;;1.90;68.50;;;;;;5098479;28;20206;-83
2022/03/07 02:34:43;;;;;;;14.25;8.77;;;2.00;68.60;;;;;;5100184;28;20299;-83
2022/03/07 02:37:09;;;;;;;13.77;8.17;;;2.10;69.20;;;;;;5099796;28;20191;-83
2022/03/07 02:39:35;;;;;;;12.53;8.40;;;1.90;68.50;;;;;;5098873;28;20941;-83
2022/03/07 02:42:00;;;;;;;12.57;8.00;;;2.00;68.40;;;;;;5100536;28;21019;-83
2022/03/07 02:44:26;;;;;;;12.63;8.20;;;1.90;68.40;;;;;;5098934;28;20196;-84
2022/03/07 02:46:52;;;;;;;13.37;7.40;;;2.10;68.40;;;;;;5098363;28;20505;-85
2022/03/07 02:49:18;;;;;;;12.17;8.47;;;2.00;68.30;;;;;;5098504;28;20638;-83
2022/03/07 02:51:44;;;;;;;11.18;7.78;;;2.00;68.30;;;;;;5101162;28;20429;-85
2022/03/07 02:54:10;;;;;;;12.30;8.20;;;1.90;68.30;;;;;;5101327;28;20200;-82
2022/03/07 02:56:36;;;;;;;14.87;8.20;;;1.80;68.60;;;;;;5101299;28;20501;-83
2022/03/07 02:59:02;;;;;;;15.60;9.60;;;1.80;68.70;;;;;;5100733;28;20175;-83
2022/03/07 03:01:28;;;;;;;12.80;8.55;;;1.70;69.00;;;;;;5103503;28;20212;-83
2022/03/07 03:03:53;;;;;;;19.47;9.40;;;1.60;69.30;;;;;;5104055;28;20286;-83
2022/03/07 03:06:19;;;;;;;13.30;7.83;;;1.70;69.20;;;;;;5104341;28;20180;-86
2022/03/07 03:08:45;;;;;;;14.67;7.77;;;1.70;69.30;;;;;;5097780;28;20181;-84
2022/03/07 03:11:11;;;;;;;13.63;8.17;;;1.70;69.50;;;;;;5094916;28;20172;-86
2022/03/07 03:13:37;;;;;;;12.73;8.57;;;1.70;69.40;;;;;;5095354;28;20211;-86
2022/03/07 03:16:04;;;;;;;19.30;8.85;;;1.70;69.40;;;;;;5095925;28;20198;-85
2022/03/07 03:18:30;;;;;;;13.88;8.52;;;1.60;69.60;;;;;;5099596;28;20183;-86
2022/03/07 03:20:56;;;;;;;16.50;10.33;;;1.70;69.60;;;;;;5104467;28;20212;-84
2022/03/07 03:23:24;;;;;;;10.83;8.57;;;1.70;69.80;;;;;;5114210;28;20458;-85
2022/03/07 03:25:50;;;;;;;11.57;8.18;;;1.60;69.70;;;;;;5108832;28;20190;-85
2022/03/07 03:28:16;;;;;;;15.10;9.32;;;1.60;69.80;;;;;;5104542;28;20188;-86
2022/03/07 03:30:42;;;;;;;22.43;8.50;;;1.60;69.90;;;;;;5102902;28;20674;-85
2022/03/07 03:33:08;;;;;;;17.53;9.87;;;1.50;70.10;;;;;;5099653;28;20183;-86
2022/03/07 03:35:37;;;;;;;17.50;8.98;;;1.60;70.80;;;;;;5104689;28;20430;-85
2022/03/07 03:38:04;;;;;;;11.82;8.82;;;1.60;70.20;;;;;;5115136;28;20188;-86
2022/03/07 03:40:30;;;;;;;13.50;8.20;;;1.50;70.50;;;;;;5095984;28;20208;-86
2022/03/07 03:42:56;;;;;;;13.77;9.03;;;1.50;70.50;;;;;;5097560;28;20257;-83
2022/03/07 03:45:22;;;;;;;14.00;8.70;;;1.60;70.50;;;;;;5094844;28;20198;-88
2022/03/07 03:47:48;;;;;;;15.20;9.43;;;1.60;70.40;;;;;;5095138;28;20184;-89
2022/03/07 03:50:14;;;;;;;13.50;8.33;;;1.50;70.60;;;;;;5097710;28;20426;-88
2022/03/07 03:52:41;;;;;;;14.00;8.35;;;1.50;70.70;;;;;;5096304;28;20720;-88
2022/03/07 03:55:10;;;;;;;12.50;8.80;;;1.40;70.80;;;;;;5094676;28;20275;-88
2022/03/07 03:57:36;;;;;;;14.18;8.65;;;1.40;71.00;;;;;;5095788;28;20328;-88
2022/03/07 04:00:04;;;;;;;16.40;8.52;;;1.40;71.00;;;;;;5094284;28;20203;-88
2022/03/07 04:02:30;;;;;;;13.07;8.35;;;1.40;71.20;;;;;;5094367;28;20172;-88
2022/03/07 04:04:56;;;;;;;13.20;9.20;;;1.30;71.40;;;;;;5077835;28;20300;-88
2022/03/07 04:07:22;;;;;;;18.80;9.77;;;1.40;71.40;;;;;;5095705;28;20410;-87
2022/03/07 04:09:48;;;;;;;16.30;9.98;;;1.40;71.20;;;;;;5093863;28;20180;-87
2022/03/07 04:12:13;;;;;;;27.73;9.40;;;1.30;71.40;;;;;;5088803;28;20185;-88
2022/03/07 04:14:39;;;;;;;15.83;9.60;;;1.30;71.50;;;;;;5094016;28;20501;-88
2022/03/07 04:17:05;;;;;;;15.00;8.30;;;1.30;71.50;;;;;;5095643;28;20635;-87
2022/03/07 04:19:30;;;;;;;16.60;10.03;;;1.20;71.70;;;;;;5094408;28;20433;-88
2022/03/07 04:21:56;;;;;;;19.97;10.17;;;1.20;71.90;;;;;;5094414;28;20267;-88
2022/03/07 04:24:22;;;;;;;14.50;8.90;;;1.10;72.20;;;;;;5094154;28;20223;-87
2022/03/07 04:26:48;;;;;;;14.27;10.23;;;1.20;72.20;;;;;;5095305;28;20285;-87
2022/03/07 04:29:14;;;;;;;19.92;9.63;;;1.20;72.20;;;;;;5074697;28;20415;-85
2022/03/07 04:31:44;;;;;;;20.63;11.43;;;1.30;72.20;;;;;;5077089;28;20185;-86
2022/03/07 04:34:13;;;;;;;18.38;10.02;;;1.40;71.70;;;;;;5077887;28;20680;-84
2022/03/07 04:36:39;;;;;;;21.00;10.00;;;1.20;71.80;;;;;;5097218;28;20175;-84
2022/03/07 04:39:07;;;;;;;17.48;10.50;;;1.20;72.00;;;;;;5100398;28;20180;-84
2022/03/07 04:41:33;;;;;;;20.17;10.57;;;1.20;72.10;;;;;;5095619;28;20204;-84
2022/03/07 04:43:59;;;;;;;18.30;10.73;;;1.10;72.10;;;;;;5097403;28;20196;-83
2022/03/07 04:46:26;;;;;;;23.33;10.30;;;1.20;72.10;;;;;;5099988;28;20176;-83
2022/03/07 04:48:52;;;;;;;18.38;9.68;;;1.30;71.80;;;;;;5103228;28;20221;-82
2022/03/07 04:51:18;;;;;;;17.17;10.57;;;1.20;71.60;;;;;;5103301;28;20184;-83
2022/03/07 04:53:44;;;;;;;19.30;10.50;;;1.30;71.70;;;;;;5108189;28;20434;-84
2022/03/07 04:56:10;;;;;;;20.80;11.50;;;1.30;71.70;;;;;;5112546;28;20183;-83
2022/03/07 04:58:35;;;;;;;28.40;9.95;;;1.20;71.80;;;;;;5117613;28;20460;-86
2022/03/07 05:01:02;;;;;;;20.03;9.90;;;1.30;71.60;;;;;;5117412;28;20199;-83
2022/03/07 05:03:28;;;;;;;20.13;10.13;;;1.40;71.50;;;;;;5108305;28;20468;-83
2022/03/07 05:05:53;;;;;;;23.97;9.93;;;1.30;71.40;;;;;;5100359;28;20176;-87
2022/03/07 05:08:19;;;;;;;17.37;10.60;;;1.30;71.60;;;;;;5098170;28;20418;-84
2022/03/07 05:10:49;;;;;;;15.23;9.37;;;1.30;71.70;;;;;;5098873;28;20410;-85
2022/03/07 05:13:15;;;;;;;16.23;9.73;;;1.20;71.70;;;;;;5100566;28;20494;-84
2022/03/07 05:15:41;;;;;;;20.55;10.02;;;1.10;71.90;;;;;;5113188;28;20215;-84
2022/03/07 05:18:07;;;;;;;17.95;10.65;;;1.20;72.10;;;;;;5106390;28;20259;-84
2022/03/07 05:20:33;;;;;;;26.25;11.38;;;1.10;72.00;;;;;;5110973;28;20219;-84
2022/03/07 05:22:59;;;;;;;17.93;11.00;;;1.20;71.70;;;;;;5107193;28;20186;-83
2022/03/07 05:25:25;;;;;;;17.98;11.07;;;1.20;71.70;;;;;;5100768;28;20465;-84
2022/03/07 05:27:51;;;;;;;18.83;10.90;;;1.20;71.70;;;;;;5102683;28;20180;-84
2022/03/07 05:30:20;;;;;;;18.63;9.90;;;1.20;71.60;;;;;;5112726;28;20409;-92
2022/03/07 05:32:47;;;;;;;24.35;11.15;;;1.20;71.70;;;;;;5115102;28;20454;-82
2022/03/07 05:35:14;;;;;;;19.85;10.95;;;1.10;71.80;;;;;;5083341;28;20219;-84
2022/03/07 05:37:40;;;;;;;25.58;11.05;;;1.10;72.00;;;;;;5100562;28;20177;-86
2022/03/07 05:40:09;;;;;;;21.43;10.97;;;1.20;71.80;;;;;;5099295;28;20208;-84
2022/03/07 05:42:35;;;;;;;21.80;10.63;;;1.20;71.80;;;;;;5083078;28;20417;-84
2022/03/07 05:45:01;;;;;;;19.40;10.63;;;1.10;71.90;;;;;;5102227;28;20271;-84
2022/03/07 05:47:27;;;;;;;18.47;10.50;;;1.10;72.60;;;;;;5102333;28;20234;-84
2022/03/07 05:49:52;;;;;;;16.87;10.40;;;1.10;72.00;;;;;;5106107;28;20898;-86
2022/03/07 05:52:18;;;;;;;24.97;11.50;;;1.20;71.80;;;;;;5102000;28;20192;-85
2022/03/07 05:54:44;;;;;;;20.63;11.43;;;1.20;71.70;;;;;;5102617;28;20576;-85
2022/03/07 05:57:10;;;;;;;21.50;11.60;;;1.10;71.70;;;;;;5103234;28;20440;-85
2022/03/07 05:59:36;;;;;;;18.13;10.93;;;1.20;71.50;;;;;;5102307;28;20484;-82
2022/03/07 06:02:02;;;;;;;22.83;10.40;;;1.10;71.50;;;;;;5100066;28;20496;-85
2022/03/07 06:04:27;;;;;;;24.20;11.48;;;0.90;71.50;;;;;;5101010;28;20195;-85
2022/03/07 06:06:53;;;;;;;18.40;11.13;;;0.90;71.80;;;;;;5102084;28;20176;-84
2022/03/07 06:09:19;;;;;;;19.70;11.02;;;1.00;72.00;;;;;;5100176;28;20176;-84
2022/03/07 06:11:45;;;;;;;22.03;11.10;;;1.00;71.80;;;;;;5099256;28;20180;-84
2022/03/07 06:14:29;;;;;;;19.13;10.60;;;1.00;71.80;;;;;;5099283;28;20249;-84
2022/03/07 06:16:55;;;;;;;18.20;11.63;;;0.90;71.80;;;;;;5096956;28;20560;-87
2022/03/07 06:19:20;;;;;;;22.90;12.63;;;0.80;72.00;;;;;;5098090;28;20183;-89
2022/03/07 06:21:47;;;;;;;15.37;10.43;;;0.90;72.10;;;;;;5093686;28;20184;-86
2022/03/07 06:24:13;;;;;;;21.63;11.40;;;0.80;72.10;;;;;;5103514;28;20293;-86
2022/03/07 06:26:39;;;;;;;19.90;10.85;;;0.80;72.30;;;;;;5102303;28;20180;-86
2022/03/07 06:29:05;;;;;;;16.73;10.40;;;0.90;72.30;;;;;;5100246;28;20187;-86
2022/03/07 06:31:32;;;;;;;22.75;11.38;;;0.70;72.50;;;;;;5099614;28;20546;-85
2022/03/07 06:33:58;;;;;;;18.27;10.55;;;0.80;72.60;;;;;;5099821;28;20750;-86
2022/03/07 06:36:23;;;;;;;24.40;11.20;;;0.80;72.50;;;;;;5096189;28;20199;-86
2022/03/07 06:38:49;;;;;;;20.07;10.60;;;0.80;72.50;;;;;;5097491;28;20426;-86
2022/03/07 06:41:15;;;;;;;22.93;11.60;;;0.90;72.40;;;;;;5093732;28;20211;-85
2022/03/07 06:43:40;;;;;;;21.70;12.03;;;1.10;72.20;;;;;;5095909;28;20248;-82
2022/03/07 06:46:06;;;;;;;19.67;11.03;;;1.00;71.90;;;;;;5095917;28;20176;-82
2022/03/07 06:48:33;;;;;;;18.57;10.67;;;1.00;72.10;;;;;;5095870;28;20414;-82
2022/03/07 06:50:59;;;;;;;22.73;11.52;;;1.00;71.90;;;;;;5096730;28;20552;-83
2022/03/07 06:53:25;;;;;;;15.20;9.77;;;1.10;71.70;;;;;;5101699;28;20203;-84
2022/03/07 06:55:51;;;;;;;23.17;10.30;;;1.00;71.40;;;;;;5094593;28;20187;-85
2022/03/07 06:58:18;;;;;;;19.02;10.02;;;1.00;71.20;;;;;;5096807;28;20644;-84
2022/03/07 07:00:44;;;;;;;18.95;10.88;;;1.00;71.20;;;;;;5092389;28;20208;-85
2022/03/07 07:03:10;;;;;;;22.27;11.27;;;1.00;71.10;;;;;;5098594;28;20176;-85
2022/03/07 07:05:36;;;;;;;16.27;9.83;;;1.10;71.00;;;;;;5098527;28;20206;-85
2022/03/07 07:08:02;;;;;;;20.67;12.07;;;1.10;70.80;;;;;;5098693;28;20172;-85
2022/03/07 07:10:27;;;;;;;16.70;9.80;;;1.20;70.50;;;;;;5101125;28;20168;-82
2022/03/07 07:12:53;;;;;;;19.60;11.10;;;1.30;70.30;;;;;;5115031;28;20255;-83
2022/03/07 07:15:20;;;;;;;23.33;11.50;;;1.50;70.00;;;;;;5109674;28;20465;-83
2022/03/07 07:17:45;;;;;;;18.88;11.05;;;1.50;69.60;;;;;;5109420;28;20218;-84
2022/03/07 07:20:12;;;;;;;22.80;12.93;;;1.50;69.20;;;;;;5105957;28;20196;-84
2022/03/07 07:22:39;;;;;;;20.08;11.57;;;1.40;68.90;;;;;;5105606;28;20179;-82
2022/03/07 07:25:06;;;;;;;20.83;11.73;;;1.40;68.90;;;;;;5114416;28;20250;-83
2022/03/07 07:27:32;;;;;;;33.30;13.50;;;1.40;68.70;;;;;;5098511;28;20184;-84
2022/03/07 07:29:58;;;;;;;17.80;9.90;;;1.60;68.60;;;;;;5097602;28;20175;-84
2022/03/07 07:32:25;;;;;;;14.83;9.77;;;1.60;68.10;;;;;;5097959;28;20421;-83
2022/03/07 07:34:50;;;;;;;20.20;10.32;;;1.50;68.00;;;;;;5096752;28;20812;-84
2022/03/07 07:37:16;;;;;;;21.63;11.33;;;1.60;67.80;;;;;;5097867;28;20176;-83
2022/03/07 07:39:42;;;;;;;14.87;10.43;;;1.70;67.60;;;;;;5097236;28;20206;-84
2022/03/07 07:42:07;;;;;;;18.43;9.93;;;1.70;67.20;;;;;;5097110;28;20418;-85
2022/03/07 07:44:33;;;;;;;15.20;10.67;;;1.70;67.00;;;;;;5095133;28;20684;-85
2022/03/07 07:46:59;;;;;;;16.60;11.07;;;1.60;66.80;;;;;;5101980;28;20176;-84
2022/03/07 07:49:25;;;;;;;18.83;10.13;;;1.70;66.70;;;;;;5108515;28;20274;-86
2022/03/07 07:51:51;;;;;;;20.30;11.20;;;1.70;66.40;;;;;;5111904;28;20555;-83
2022/03/07 07:54:17;;;;;;;16.02;9.50;;;1.80;66.20;;;;;;5116774;28;20191;-83
2022/03/07 07:56:43;;;;;;;15.17;9.47;;;1.90;65.90;;;;;;5116060;28;20191;-84
2022/03/07 07:59:10;;;;;;;12.50;9.00;;;2.00;65.50;;;;;;5117231;28;20190;-85
2022/03/07 08:01:36;;;;;;;18.65;9.93;;;1.90;65.20;;;;;;5110245;28;20521;-84
2022/03/07 08:04:02;;;;;;;19.00;9.70;;;1.90;65.10;;;;;;5104556;28;20209;-84
2022/03/07 08:06:28;;;;;;;22.40;10.55;;;2.00;64.80;;;;;;5099955;28;20697;-82
2022/03/07 08:08:53;;;;;;;17.33;10.60;;;2.00;65.00;;;;;;5098841;28;20175;-83
2022/03/07 08:11:19;;;;;;;25.33;11.20;;;2.10;65.00;;;;;;5106639;28;20435;-83
2022/03/07 08:13:45;;;;;;;17.57;10.53;;;2.10;64.40;;;;;;5105547;28;20442;-84
2022/03/07 08:16:11;;;;;;;20.60;10.77;;;2.00;64.40;;;;;;5106561;28;20192;-84
2022/03/07 08:18:37;;;;;;;24.77;11.90;;;2.00;64.00;;;;;;5115257;28;20207;-84
2022/03/07 08:21:03;;;;;;;18.33;10.20;;;2.10;64.20;;;;;;5096530;28;20214;-85
2022/03/07 08:23:29;;;;;;;15.47;10.10;;;2.00;64.00;;;;;;5096505;28;20199;-85
2022/03/07 08:25:55;;;;;;;24.10;11.13;;;2.30;64.10;;;;;;5094841;28;20410;-85
2022/03/07 08:28:20;;;;;;;19.77;11.10;;;2.10;62.60;;;;;;5094685;28;20416;-84
2022/03/07 08:30:46;;;;;;;14.67;8.73;;;2.10;62.60;;;;;;5096218;28;20440;-84
2022/03/07 08:33:12;;;;;;;20.23;10.77;;;2.20;62.70;;;;;;5096218;28;20426;-84
2022/03/07 08:35:38;;;;;;;18.30;9.50;;;2.50;62.60;;;;;;5101819;28;20283;-85
2022/03/07 08:38:04;;;;;;;15.37;9.13;;;2.80;62.10;;;;;;5096527;28;20491;-85
2022/03/07 08:40:30;;;;;;;13.77;8.65;;;2.90;61.60;;;;;;5096395;28;20234;-85
2022/03/07 08:42:56;;;;;;;12.13;7.90;;;2.90;61.00;;;;;;5081436;28;20180;-84
2022/03/07 08:45:25;;;;;;;10.87;9.00;;;2.80;59.80;;;;;;5097077;28;20435;-84
2022/03/07 08:47:51;;;;;;;16.30;8.48;;;2.70;60.00;;;;;;5099183;28;20172;-83
2022/03/07 08:50:18;;;;;;;11.20;8.55;;;2.60;59.50;;;;;;5101890;28;20187;-82
2022/03/07 08:52:45;;;;;;;14.80;8.93;;;2.60;59.50;;;;;;5106460;28;20191;-81
2022/03/07 08:55:12;;;;;;;11.60;7.65;;;2.50;59.90;;;;;;5102373;28;20210;-84
2022/03/07 08:57:38;;;;;;;20.27;10.73;;;2.70;59.80;;;;;;5100262;28;20168;-81
2022/03/07 09:00:06;;;;;;;14.45;8.93;;;2.80;59.70;;;;;;5101568;28;20225;-81
2022/03/07 09:02:32;;;;;;;12.75;8.45;;;2.90;58.50;;;;;;5107147;28;20168;-85
2022/03/07 09:04:58;;;;;;;11.17;7.33;;;3.00;58.10;;;;;;5113886;28;20199;-81
2022/03/07 09:07:27;;;;;;;12.33;7.70;;;3.10;57.50;;;;;;5100606;28;20164;-81
2022/03/07 09:09:53;;;;;;;8.15;6.43;;;3.00;56.40;;;;;;5100620;28;20425;-81
2022/03/07 09:12:18;;;;;;;10.75;7.22;;;3.00;55.80;;;;;;5102545;28;20229;-82
2022/03/07 09:14:44;;;;;;;13.97;6.90;;;3.10;55.50;;;;;;5103445;28;20268;-86
2022/03/07 09:17:10;;;;;;;11.60;7.23;;;3.20;55.20;;;;;;5099482;28;20294;-84
2022/03/07 09:19:36;;;;;;;13.20;8.20;;;3.30;54.70;;;;;;5093895;28;20184;-85
2022/03/07 09:22:02;;;;;;;6.93;4.60;;;3.40;54.10;;;;;;5102795;28;20263;-87
2022/03/07 09:24:27;;;;;;;12.30;7.57;;;3.30;53.40;;;;;;5103670;28;20433;-86
2022/03/07 09:26:53;;;;;;;8.93;6.70;;;3.30;53.00;;;;;;5104048;28;20418;-86
2022/03/07 09:29:19;;;;;;;6.77;5.60;;;3.30;53.10;;;;;;5102529;28;20187;-86
2022/03/07 09:31:44;;;;;;;10.10;5.20;;;3.30;52.90;;;;;;5103468;28;20172;-86
2022/03/07 09:34:12;;;;;;;11.33;5.57;;;3.10;52.60;;;;;;5100987;28;20210;-85
2022/03/07 09:36:38;;;;;;;11.90;6.18;;;3.30;53.10;;;;;;5098604;28;20194;-86
2022/03/07 09:39:05;;;;;;;7.27;5.40;;;3.30;52.70;;;;;;5098521;28;20180;-86
2022/03/07 09:41:31;;;;;;;7.28;5.70;;;3.30;52.10;;;;;;5100435;28;20453;-86
2022/03/07 09:43:57;;;;;;;6.85;5.20;;;3.40;51.90;;;;;;5098207;28;20196;-86
2022/03/07 09:46:25;;;;;;;10.10;5.93;;;3.40;52.10;;;;;;5098082;28;20172;-87
2022/03/07 09:48:53;;;;;;;7.25;5.95;;;3.50;51.70;;;;;;5097554;28;20176;-86
2022/03/07 09:51:18;;;;;;;9.82;5.40;;;3.50;51.70;;;;;;5098279;28;20182;-86
2022/03/07 09:53:44;;;;;;;12.17;6.20;;;3.60;51.40;;;;;;5098339;28;20234;-87
2022/03/07 09:56:10;;;;;;;5.47;3.93;;;3.70;51.10;;;;;;5100261;28;20937;-86
2022/03/07 09:58:36;;;;;;;9.90;5.13;;;3.80;50.50;;;;;;5100984;28;20505;-86
2022/03/07 10:01:19;;;;;;;9.97;6.23;;;3.90;50.20;;;;;;5101284;28;20273;-86
2022/03/07 10:03:46;;;;;;;11.57;5.75;;;4.00;50.40;;;;;;5100980;28;20513;-83
2022/03/07 10:06:15;;;;;;;9.93;5.45;;;3.80;49.90;;;;;;5099751;28;20592;-83
2022/03/07 10:08:55;;;;;;;7.60;5.72;;;3.90;50.40;;;;;;5104204;28;20177;-83
2022/03/07 10:11:22;;;;;;;9.80;6.78;;;4.00;50.10;;;;;;5101667;28;20225;-82
2022/03/07 10:13:53;;;;;;;26.25;5.25;;;4.00;49.80;;;;;;5099961;28;20214;-83
2022/03/07 10:16:20;;;;;;;7.78;6.60;;;3.80;49.80;;;;;;5097511;28;20668;-82
2022/03/07 10:18:51;;;;;;;8.13;5.35;;;4.00;50.00;;;;;;5098041;28;20266;-82
2022/03/07 10:21:22;;;;;;;7.25;5.55;;;4.20;49.80;;;;;;5098285;28;20200;-82
2022/03/07 10:23:57;;;;;;;5.75;4.93;;;4.20;49.30;;;;;;5099591;28;20192;-83
2022/03/07 10:26:24;;;;;;;8.68;6.35;;;4.20;49.20;;;;;;5099394;28;20179;-83
2022/03/07 10:28:55;;;;;;;7.10;4.68;;;4.30;49.20;;;;;;5079440;28;20212;-82
2022/03/07 10:31:21;;;;;;;5.25;4.75;;;4.40;49.10;;;;;;5079863;28;20551;-83
2022/03/07 10:33:58;;;;;;;7.97;5.38;;;4.50;48.70;;;;;;5084253;28;20252;-83
2022/03/07 10:36:43;;;;;;;5.13;4.35;;;4.60;48.20;;;;;;5099319;28;20674;-84
2022/03/07 10:39:11;;;;;;;6.38;4.57;;;4.60;47.70;;;;;;5114030;28;20160;-86
2022/03/07 10:41:42;;;;;;;8.55;5.57;;;4.60;47.70;;;;;;5118180;28;20302;-85
2022/03/07 10:44:22;;;;;;;6.35;4.30;;;4.60;47.80;;;;;;5110878;28;20200;-83
2022/03/07 10:46:48;;;;;;;6.00;4.75;;;4.80;47.20;;;;;;5101380;28;20171;-82
2022/03/07 10:49:17;;;;;;;6.03;4.90;;;4.90;47.00;;;;;;5098664;28;20176;-83
2022/03/07 10:51:55;;;;;;;10.95;5.80;;;5.00;47.30;;;;;;5082899;28;20256;-83
2022/03/07 10:54:22;;;;;;;9.52;4.90;;;4.70;47.10;;;;;;5103293;28;20211;-85
2022/03/07 10:56:50;;;;;;;6.28;5.13;;;4.90;47.00;;;;;;5109924;28;20176;-82
2022/03/07 10:59:29;;;;;;;10.10;5.80;;;4.90;47.20;;;;;;5098632;28;20191;-83
2022/03/07 11:02:09;;;;;;;6.68;5.30;;;4.80;46.90;;;;;;5100896;28;20194;-83
2022/03/07 11:04:37;;;;;;;8.50;5.82;;;4.70;46.80;;;;;;5101072;28;20195;-84
2022/03/07 11:07:03;;;;;;;10.85;6.35;;;4.80;47.20;;;;;;5107210;28;20190;-84
2022/03/07 11:09:29;;;;;;;8.40;5.90;;;4.80;47.00;;;;;;5116022;28;20239;-83
2022/03/07 11:11:55;;;;;;;9.27;5.07;;;5.10;46.70;;;;;;5102518;28;20191;-83
2022/03/07 11:14:24;;;;;;;5.75;5.15;;;5.20;46.80;;;;;;5106139;28;20200;-83
2022/03/07 11:16:51;;;;;;;7.15;5.03;;;5.10;46.60;;;;;;5097765;28;20199;-84
2022/03/07 11:19:21;;;;;;;9.65;5.20;;;5.20;46.30;;;;;;5079064;28;20183;-83
2022/03/07 11:21:51;;;;;;;8.05;4.90;;;5.30;46.50;;;;;;5095177;28;20217;-82
2022/03/07 11:24:20;;;;;;;7.15;5.68;;;5.40;46.20;;;;;;5094395;28;20215;-83
2022/03/07 11:26:48;;;;;;;15.35;5.68;;;5.50;45.80;;;;;;5095461;28;20226;-82
2022/03/07 11:29:16;;;;;;;8.75;5.72;;;5.40;45.40;;;;;;5096150;28;20272;-82
2022/03/07 11:31:43;;;;;;;6.90;5.60;;;5.60;45.50;;;;;;5095791;28;20272;-84
2022/03/07 11:34:10;;;;;;;8.63;6.10;;;5.70;45.40;;;;;;5095272;28;20199;-83
2022/03/07 11:36:43;;;;;;;7.65;4.85;;;5.60;45.60;;;;;;5096987;28;20282;-82
2022/03/07 11:39:09;;;;;;;5.55;5.03;;;5.40;45.20;;;;;;5094527;28;20647;-83
2022/03/07 11:41:36;;;;;;;8.95;5.57;;;5.70;46.00;;;;;;5096291;28;20195;-84
2022/03/07 11:44:13;;;;;;;7.80;5.57;;;5.80;45.40;;;;;;5094761;28;20234;-82
2022/03/07 11:46:51;;;;;;;9.68;5.47;;;6.00;44.50;;;;;;5095721;28;20488;-83
2022/03/07 11:49:28;;;;;;;8.50;5.47;;;6.00;43.60;;;;;;5097024;28;20164;-81
2022/03/07 11:52:06;;;;;;;5.28;4.35;;;6.10;43.50;;;;;;5082686;28;20185;-81
2022/03/07 11:54:32;;;;;;;6.20;4.47;;;5.90;43.10;;;;;;5078267;28;20666;-82
2022/03/07 11:57:34;;;;;;;8.23;5.93;;;6.10;42.70;;;;;;5097213;28;20164;-82
2022/03/07 12:00:34;;;;;;;5.90;4.30;;;6.00;42.40;;;;;;5095974;28;20202;-81
2022/03/07 12:03:10;;;;;;;5.80;4.90;;;5.90;43.00;;;;;;5094910;28;20179;-82
2022/03/07 12:05:36;;;;;;;5.97;4.85;;;6.10;43.10;;;;;;5075264;28;20295;-82
2022/03/07 12:08:12;;;;;;;7.70;4.97;;;6.20;42.60;;;;;;5075397;28;20196;-82
2022/03/07 12:10:50;;;;;;;7.43;5.15;;;6.30;42.50;;;;;;5081653;28;20444;-82
2022/03/07 12:13:16;;;;;;;5.03;4.63;;;6.40;42.60;;;;;;5096884;28;20192;-83
2022/03/07 12:15:49;;;;;;;9.03;6.10;;;6.40;42.40;;;;;;5100797;28;20253;-83
2022/03/07 12:18:16;;;;;;;7.38;5.50;;;6.20;42.20;;;;;;5100573;28;20420;-82
2022/03/07 12:20:54;;;;;;;5.70;5.20;;;6.40;42.10;;;;;;5083232;28;20207;-82
2022/03/07 12:23:22;;;;;;;4.57;4.15;;;6.40;42.60;;;;;;5084821;28;20248;-82
2022/03/07 12:25:59;;;;;;;4.30;3.90;;;6.50;41.50;;;;;;5104166;28;20195;-82
2022/03/07 12:28:34;;;;;;;5.95;5.13;;;6.70;41.20;;;;;;5104989;28;20152;-82
2022/03/07 12:31:01;;;;;;;5.45;4.70;;;6.70;40.90;;;;;;5104034;28;20179;-82
2022/03/07 12:33:27;;;;;;;4.95;4.45;;;6.50;40.30;;;;;;5105963;28;20636;-82
2022/03/07 12:36:04;;;;;;;6.60;4.57;;;6.40;40.00;;;;;;5101057;28;20180;-82
2022/03/07 12:38:30;;;;;;;7.82;5.03;;;6.50;40.00;;;;;;5101849;28;20188;-83
2022/03/07 12:41:00;;;;;;;6.85;4.82;;;6.60;40.10;;;;;;5101700;28;20290;-82
2022/03/07 12:43:26;;;;;;;5.30;4.50;;;6.60;39.70;;;;;;5098494;28;20175;-82
2022/03/07 12:45:56;;;;;;;4.70;4.18;;;6.50;39.70;;;;;;5101035;28;20243;-86
2022/03/07 12:48:37;;;;;;;23.50;7.25;;;6.50;39.80;;;;;;5109352;28;20217;-82